Terminal Aerodrome Forecast
Issued by NWS

Home | Current Version | Previous Version | Text Only | Print | Product List | Glossary On
Versions: 1 2 3 4 5 6 7 8 9 10 11 12 13 14 15 16 17 18 19 20 21 22
000
FTAK31 PAFA 280306 AAB
TAFAOM
TAF AMD
PAOM 280306Z 2803/2824 15018G24KT 2SM -RA BR BKN012 OVC017
     FM280600 16014KT 4SM -RA BR OVC015
     FM281200 18010KT 4SM -RA BR OVC003
     FM281700 17009KT 6SM -RA BR SCT003 OVC007=

USA.gov is the U.S. government's official web portal to all federal, state and local government web resources and services.